sensor_id;sensor_type;location;lat;lon;timestamp;pressure;altitude;pressure_sealevel;temperature;humidity
20909;BME280;10614;53.198;6.570;2023-02-03T00:01:38;102098.72;;;7.89;100.00
20909;BME280;10614;53.198;6.570;2023-02-03T00:03:39;102121.41;;;7.92;100.00
20909;BME280;10614;53.198;6.570;2023-02-03T00:05:41;102127.56;;;7.88;100.00
20909;BME280;10614;53.198;6.570;2023-02-03T00:07:44;102111.84;;;7.86;100.00
20909;BME280;10614;53.198;6.570;2023-02-03T00:09:45;102107.47;;;7.87;100.00
20909;BME280;10614;53.198;6.570;2023-02-03T00:11:48;102089.13;;;7.87;100.00
20909;BME280;10614;53.198;6.570;2023-02-03T00:13:50;102088.25;;;7.88;100.00
20909;BME280;10614;53.198;6.570;2023-02-03T00:15:52;102097.84;;;7.87;100.00
20909;BME280;10614;53.198;6.570;2023-02-03T00:17:53;102089.09;;;7.88;100.00
20909;BME280;10614;53.198;6.570;2023-02-03T00:19:55;102092.59;;;7.89;100.00
20909;BME280;10614;53.198;6.570;2023-02-03T00:21:56;102121.41;;;7.89;100.00
20909;BME280;10614;53.198;6.570;2023-02-03T00:23:58;102105.72;;;7.87;100.00
20909;BME280;10614;53.198;6.570;2023-02-03T00:26:05;102085.56;;;7.92;100.00
20909;BME280;10614;53.198;6.570;2023-02-03T00:28:08;102089.06;;;7.93;100.00
20909;BME280;10614;53.198;6.570;2023-02-03T00:30:11;102079.47;;;7.92;100.00
20909;BME280;10614;53.198;6.570;2023-02-03T00:32:12;102073.38;;;7.90;100.00
20909;BME280;10614;53.198;6.570;2023-02-03T00:34:14;102096.09;;;7.89;100.00
20909;BME280;10614;53.198;6.570;2023-02-03T00:36:16;102091.72;;;7.88;100.00
20909;BME280;10614;53.198;6.570;2023-02-03T00:38:17;102093.47;;;7.89;100.00
20909;BME280;10614;53.198;6.570;2023-02-03T00:40:20;102084.72;;;7.89;100.00
20909;BME280;10614;53.198;6.570;2023-02-03T00:42:22;102074.22;;;7.90;100.00
20909;BME280;10614;53.198;6.570;2023-02-03T00:44:25;102068.09;;;7.91;100.00
20909;BME280;10614;53.198;6.570;2023-02-03T00:46:26;102064.63;;;7.89;100.00
20909;BME280;10614;53.198;6.570;2023-02-03T00:48:28;102056.78;;;7.89;100.00
20909;BME280;10614;53.198;6.570;2023-02-03T00:50:30;102060.22;;;7.91;100.00
20909;BME280;10614;53.198;6.570;2023-02-03T00:52:31;102059.34;;;7.92;100.00
20909;BME280;10614;53.198;6.570;2023-02-03T00:54:33;102056.75;;;7.91;100.00
20909;BME280;10614;53.198;6.570;2023-02-03T00:56:35;102054.97;;;7.93;100.00
20909;BME280;10614;53.198;6.570;2023-02-03T00:58:36;102050.59;;;7.93;100.00
20909;BME280;10614;53.198;6.570;2023-02-03T01:00:39;102048.88;;;7.92;100.00
20909;BME280;10614;53.198;6.570;2023-02-03T01:02:41;102029.66;;;7.92;100.00
20909;BME280;10614;53.198;6.570;2023-02-03T01:04:43;102049.75;;;7.91;100.00
20909;BME280;10614;53.198;6.570;2023-02-03T01:06:44;102039.25;;;7.91;100.00
20909;BME280;10614;53.198;6.570;2023-02-03T01:08:47;102044.50;;;7.93;100.00
20909;BME280;10614;53.198;6.570;2023-02-03T01:10:49;102047.97;;;7.95;100.00
20909;BME280;10614;53.198;6.570;2023-02-03T01:12:50;102032.25;;;7.95;100.00
20909;BME280;10614;53.198;6.570;2023-02-03T01:14:52;102040.09;;;7.93;100.00
20909;BME280;10614;53.198;6.570;2023-02-03T01:16:55;102074.19;;;7.93;100.00
20909;BME280;10614;53.198;6.570;2023-02-03T01:18:57;102027.00;;;7.93;100.00
20909;BME280;10614;53.198;6.570;2023-02-03T01:21:03;102012.16;;;7.92;100.00
20909;BME280;10614;53.198;6.570;2023-02-03T01:23:05;101990.31;;;7.92;100.00
20909;BME280;10614;53.198;6.570;2023-02-03T01:25:07;102001.63;;;7.95;100.00
20909;BME280;10614;53.198;6.570;2023-02-03T01:27:09;102006.03;;;7.93;100.00
20909;BME280;10614;53.198;6.570;2023-02-03T01:29:11;102049.72;;;7.94;100.00
20909;BME280;10614;53.198;6.570;2023-02-03T01:31:14;102039.25;;;7.94;100.00
20909;BME280;10614;53.198;6.570;2023-02-03T01:33:17;102045.38;;;7.92;100.00
20909;BME280;10614;53.198;6.570;2023-02-03T01:35:19;102037.53;;;7.90;100.00
20909;BME280;10614;53.198;6.570;2023-02-03T01:37:20;102041.00;;;7.91;100.00
20909;BME280;10614;53.198;6.570;2023-02-03T01:39:22;102037.53;;;7.90;100.00
20909;BME280;10614;53.198;6.570;2023-02-03T01:41:27;102038.38;;;7.92;100.00
20909;BME280;10614;53.198;6.570;2023-02-03T01:43:30;102044.50;;;7.93;100.00
20909;BME280;10614;53.198;6.570;2023-02-03T01:45:32;102068.94;;;7.93;100.00
20909;BME280;10614;53.198;6.570;2023-02-03T01:47:40;102051.44;;;7.95;100.00
20909;BME280;10614;53.198;6.570;2023-02-03T01:49:48;102047.97;;;7.95;100.00
20909;BME280;10614;53.198;6.570;2023-02-03T01:51:53;102028.75;;;7.94;100.00
20909;BME280;10614;53.198;6.570;2023-02-03T01:53:55;102016.50;;;7.96;100.00
20909;BME280;10614;53.198;6.570;2023-02-03T01:55:58;102000.78;;;7.96;100.00
20909;BME280;10614;53.198;6.570;2023-02-03T01:58:03;101992.03;;;7.94;100.00
20909;BME280;10614;53.198;6.570;2023-02-03T02:00:07;102008.66;;;7.93;100.00
20909;BME280;10614;53.198;6.570;2023-02-03T02:02:10;101983.31;;;7.92;100.00
20909;BME280;10614;53.198;6.570;2023-02-03T02:04:12;102028.75;;;7.94;100.00
20909;BME280;10614;53.198;6.570;2023-02-03T02:06:15;102059.34;;;7.92;100.00
20909;BME280;10614;53.198;6.570;2023-02-03T02:08:18;102033.09;;;7.95;100.00
20909;BME280;10614;53.198;6.570;2023-02-03T02:10:21;102028.72;;;7.97;100.00
20909;BME280;10614;53.198;6.570;2023-02-03T02:12:23;102018.25;;;7.94;100.00
20909;BME280;10614;53.198;6.570;2023-02-03T02:14:25;102020.03;;;7.92;100.00
20909;BME280;10614;53.198;6.570;2023-02-03T02:16:34;102022.63;;;7.95;100.00
20909;BME280;10614;53.198;6.570;2023-02-03T02:18:47;102034.88;;;7.93;100.00
20909;BME280;10614;53.198;6.570;2023-02-03T02:23:58;102036.63;;;7.91;100.00
20909;BME280;10614;53.198;6.570;2023-02-03T02:29:02;102018.28;;;7.91;100.00
20909;BME280;10614;53.198;6.570;2023-02-03T02:31:36;102018.28;;;7.93;100.00
20909;BME280;10614;53.198;6.570;2023-02-03T02:33:45;102023.50;;;7.94;100.00
20909;BME280;10614;53.198;6.570;2023-02-03T02:35:56;102009.53;;;7.92;100.00
20909;BME280;10614;53.198;6.570;2023-02-03T02:38:01;101999.00;;;7.95;100.00
20909;BME280;10614;53.198;6.570;2023-02-03T02:40:12;102004.25;;;7.95;100.00
20909;BME280;10614;53.198;6.570;2023-02-03T02:42:22;102022.59;;;7.97;100.00
20909;BME280;10614;53.198;6.570;2023-02-03T02:44:31;101996.38;;;7.98;100.00
20909;BME280;10614;53.198;6.570;2023-02-03T02:46:39;101988.53;;;7.97;100.00
20909;BME280;10614;53.198;6.570;2023-02-03T02:48:45;102003.38;;;7.96;100.00
20909;BME280;10614;53.198;6.570;2023-02-03T02:50:52;101985.03;;;7.96;100.00
20909;BME280;10614;53.198;6.570;2023-02-03T02:52:56;101990.28;;;7.96;100.00
20909;BME280;10614;53.198;6.570;2023-02-03T02:55:01;101986.81;;;7.93;100.00
20909;BME280;10614;53.198;6.570;2023-02-03T02:57:05;101985.03;;;7.95;100.00
20909;BME280;10614;53.198;6.570;2023-02-03T02:59:09;101966.69;;;7.95;100.00
20909;BME280;10614;53.198;6.570;2023-02-03T03:01:12;101966.69;;;7.93;100.00
20909;BME280;10614;53.198;6.570;2023-02-03T03:03:18;101965.84;;;7.91;100.00
20909;BME280;10614;53.198;6.570;2023-02-03T03:05:20;101995.56;;;7.92;100.00
20909;BME280;10614;53.198;6.570;2023-02-03T03:07:24;101977.19;;;7.93;100.00
20909;BME280;10614;53.198;6.570;2023-02-03T03:09:30;101963.22;;;7.94;100.00
20909;BME280;10614;53.198;6.570;2023-02-03T03:11:38;101962.34;;;7.91;100.00
20909;BME280;10614;53.198;6.570;2023-02-03T03:13:51;101982.47;;;7.92;100.00
20909;BME280;10614;53.198;6.570;2023-02-03T03:15:55;101967.59;;;7.92;100.00
20909;BME280;10614;53.198;6.570;2023-02-03T03:18:03;101951.88;;;7.91;100.00
20909;BME280;10614;53.198;6.570;2023-02-03T03:20:11;101947.53;;;7.88;100.00
20909;BME280;10614;53.198;6.570;2023-02-03T03:22:17;101944.03;;;7.89;100.00
20909;BME280;10614;53.198;6.570;2023-02-03T03:24:25;101950.16;;;7.90;100.00
20909;BME280;10614;53.198;6.570;2023-02-03T03:26:31;101951.00;;;7.90;100.00
20909;BME280;10614;53.198;6.570;2023-02-03T03:28:41;101930.94;;;7.89;100.00
20909;BME280;10614;53.198;6.570;2023-02-03T03:30:44;101930.94;;;7.88;100.00
20909;BME280;10614;53.198;6.570;2023-02-03T03:32:46;101957.16;;;7.88;100.00
20909;BME280;10614;53.198;6.570;2023-02-03T03:34:48;101959.78;;;7.86;100.00
20909;BME280;10614;53.198;6.570;2023-02-03T03:36:57;101950.19;;;7.85;100.00
20909;BME280;10614;53.198;6.570;2023-02-03T03:39:03;101958.06;;;7.85;100.00
20909;BME280;10614;53.198;6.570;2023-02-03T03:41:09;101952.78;;;7.88;100.00
20909;BME280;10614;53.198;6.570;2023-02-03T03:43:16;101959.81;;;7.85;100.00
20909;BME280;10614;53.198;6.570;2023-02-03T03:45:23;101942.34;;;7.85;100.00
20909;BME280;10614;53.198;6.570;2023-02-03T03:47:30;101963.31;;;7.85;100.00
20909;BME280;10614;53.198;6.570;2023-02-03T03:49:35;101957.16;;;7.86;100.00
20909;BME280;10614;53.198;6.570;2023-02-03T03:51:41;101993.00;;;7.87;100.00
20909;BME280;10614;53.198;6.570;2023-02-03T03:53:48;101960.69;;;7.87;100.00
20909;BME280;10614;53.198;6.570;2023-02-03T03:55:52;101972.91;;;7.86;100.00
20909;BME280;10614;53.198;6.570;2023-02-03T03:57:58;101970.28;;;7.88;100.00
20909;BME280;10614;53.198;6.570;2023-02-03T04:00:02;101957.16;;;7.89;100.00
20909;BME280;10614;53.198;6.570;2023-02-03T04:02:05;101968.50;;;7.90;100.00
20909;BME280;10614;53.198;6.570;2023-02-03T04:04:09;101972.88;;;7.89;100.00
20909;BME280;10614;53.198;6.570;2023-02-03T04:06:11;101970.22;;;7.91;100.00
20909;BME280;10614;53.198;6.570;2023-02-03T04:08:13;101951.91;;;7.89;100.00
20909;BME280;10614;53.198;6.570;2023-02-03T04:10:21;101949.25;;;7.94;100.00
20909;BME280;10614;53.198;6.570;2023-02-03T04:12:25;101957.09;;;7.94;100.00
20909;BME280;10614;53.198;6.570;2023-02-03T04:14:26;101964.94;;;7.97;100.00
20909;BME280;10614;53.198;6.570;2023-02-03T04:16:29;101965.78;;;7.96;100.00
20909;BME280;10614;53.198;6.570;2023-02-03T04:18:30;101958.81;;;7.96;100.00
20909;BME280;10614;53.198;6.570;2023-02-03T04:20:32;101944.81;;;7.96;100.00
20909;BME280;10614;53.198;6.570;2023-02-03T04:22:34;101976.31;;;7.94;100.00
20909;BME280;10614;53.198;6.570;2023-02-03T04:24:36;101962.31;;;7.95;100.00
20909;BME280;10614;53.198;6.570;2023-02-03T04:26:39;101972.78;;;7.97;100.00
20909;BME280;10614;53.198;6.570;2023-02-03T04:28:42;101951.75;;;8.03;100.00
20909;BME280;10614;53.198;6.570;2023-02-03T04:30:44;101958.72;;;8.02;100.00
20909;BME280;10614;53.198;6.570;2023-02-03T04:32:45;101952.63;;;8.00;100.00
20909;BME280;10614;53.198;6.570;2023-02-03T04:34:47;101961.41;;;7.99;100.00
20909;BME280;10614;53.198;6.570;2023-02-03T04:36:49;101938.66;;;8.01;100.00
20909;BME280;10614;53.198;6.570;2023-02-03T04:38:51;101957.88;;;8.02;100.00
20909;BME280;10614;53.198;6.570;2023-02-03T04:40:52;101937.81;;;7.99;100.00
20909;BME280;10614;53.198;6.570;2023-02-03T04:42:55;101964.88;;;8.01;100.00
20909;BME280;10614;53.198;6.570;2023-02-03T04:44:57;101979.75;;;7.99;100.00
20909;BME280;10614;53.198;6.570;2023-02-03T04:46:58;101936.91;;;8.00;100.00
20909;BME280;10614;53.198;6.570;2023-02-03T04:49:00;101955.25;;;8.00;100.00
20909;BME280;10614;53.198;6.570;2023-02-03T04:51:03;101952.63;;;8.00;100.00
20909;BME280;10614;53.198;6.570;2023-02-03T04:53:05;101957.88;;;8.03;100.00
20909;BME280;10614;53.198;6.570;2023-02-03T04:55:07;101943.84;;;8.04;100.00
20909;BME280;10614;53.198;6.570;2023-02-03T04:57:08;101955.25;;;8.02;100.00
20909;BME280;10614;53.198;6.570;2023-02-03T04:59:12;101942.13;;;8.03;100.00
20909;BME280;10614;53.198;6.570;2023-02-03T05:01:13;101938.66;;;8.01;100.00
20909;BME280;10614;53.198;6.570;2023-02-03T05:03:15;101951.78;;;8.00;100.00
20909;BME280;10614;53.198;6.570;2023-02-03T05:05:16;101964.88;;;8.03;100.00
20909;BME280;10614;53.198;6.570;2023-02-03T05:07:20;101928.16;;;8.03;100.00
20909;BME280;10614;53.198;6.570;2023-02-03T05:09:22;101953.47;;;8.06;100.00
20909;BME280;10614;53.198;6.570;2023-02-03T05:11:24;101954.34;;;8.04;100.00
20909;BME280;10614;53.198;6.570;2023-02-03T05:13:26;101945.59;;;8.06;100.00
20909;BME280;10614;53.198;6.570;2023-02-03T05:15:29;101943.84;;;8.04;100.00
20909;BME280;10614;53.198;6.570;2023-02-03T05:17:30;101948.19;;;8.07;100.00
20909;BME280;10614;53.198;6.570;2023-02-03T05:19:37;101964.84;;;8.04;100.00
20909;BME280;10614;53.198;6.570;2023-02-03T05:21:39;101950.84;;;8.06;100.00
20909;BME280;10614;53.198;6.570;2023-02-03T05:23:41;101939.50;;;8.03;100.00
20909;BME280;10614;53.198;6.570;2023-02-03T05:25:43;101950.84;;;8.06;100.00
20909;BME280;10614;53.198;6.570;2023-02-03T05:27:45;101934.25;;;8.03;100.00
20909;BME280;10614;53.198;6.570;2023-02-03T05:29:46;101943.00;;;8.02;100.00
20909;BME280;10614;53.198;6.570;2023-02-03T05:31:49;101942.97;;;8.06;100.00
20909;BME280;10614;53.198;6.570;2023-02-03T05:33:51;101948.25;;;8.02;100.00
20909;BME280;10614;53.198;6.570;2023-02-03T05:35:52;101939.44;;;8.08;100.00
20909;BME280;10614;53.198;6.570;2023-02-03T05:37:54;101961.34;;;8.04;100.00
20909;BME280;10614;53.198;6.570;2023-02-03T05:39:55;101936.03;;;8.03;100.00
20909;BME280;10614;53.198;6.570;2023-02-03T05:42:17;101933.41;;;8.01;100.00
20909;BME280;10614;53.198;6.570;2023-02-03T05:44:18;101935.13;;;8.02;100.00
20909;BME280;10614;53.198;6.570;2023-02-03T05:46:20;101940.41;;;8.01;100.00
20909;BME280;10614;53.198;6.570;2023-02-03T05:48:23;101934.28;;;8.00;100.00
20909;BME280;10614;53.198;6.570;2023-02-03T05:50:24;101957.00;;;8.00;100.00
20909;BME280;10614;53.198;6.570;2023-02-03T05:52:29;101938.66;;;8.00;100.00
20909;BME280;10614;53.198;6.570;2023-02-03T05:54:31;101938.72;;;7.97;100.00
20909;BME280;10614;53.198;6.570;2023-02-03T05:56:32;101958.78;;;7.99;100.00
20909;BME280;10614;53.198;6.570;2023-02-03T05:58:34;101950.03;;;7.99;100.00
20909;BME280;10614;53.198;6.570;2023-02-03T06:00:36;101934.31;;;7.99;100.00
20909;BME280;10614;53.198;6.570;2023-02-03T06:02:37;101938.72;;;7.97;100.00
20909;BME280;10614;53.198;6.570;2023-02-03T06:04:40;101936.03;;;8.00;100.00
20909;BME280;10614;53.198;6.570;2023-02-03T06:06:42;101935.19;;;7.99;100.00
20909;BME280;10614;53.198;6.570;2023-02-03T06:08:44;101925.59;;;7.98;100.00
20909;BME280;10614;53.198;6.570;2023-02-03T06:10:45;101941.31;;;7.98;100.00
20909;BME280;10614;53.198;6.570;2023-02-03T06:12:47;101938.69;;;7.98;100.00
20909;BME280;10614;53.198;6.570;2023-02-03T06:14:49;101955.31;;;7.96;100.00
20909;BME280;10614;53.198;6.570;2023-02-03T06:16:51;101946.56;;;7.97;100.00
20909;BME280;10614;53.198;6.570;2023-02-03T06:18:53;101935.22;;;7.96;100.00
20909;BME280;10614;53.198;6.570;2023-02-03T06:20:58;101923.78;;;8.00;100.00
20909;BME280;10614;53.198;6.570;2023-02-03T06:23:00;101929.94;;;7.99;100.00
20909;BME280;10614;53.198;6.570;2023-02-03T06:25:02;101957.88;;;8.02;100.00
20909;BME280;10614;53.198;6.570;2023-02-03T06:27:03;101925.53;;;8.01;100.00
20909;BME280;10614;53.198;6.570;2023-02-03T06:29:05;101912.44;;;8.01;100.00
20909;BME280;10614;53.198;6.570;2023-02-03T06:31:06;101921.16;;;8.02;100.00
20909;BME280;10614;53.198;6.570;2023-02-03T06:33:08;101928.97;;;8.05;100.00
20909;BME280;10614;53.198;6.570;2023-02-03T06:35:10;101934.22;;;8.07;100.00
20909;BME280;10614;53.198;6.570;2023-02-03T06:37:13;101949.06;;;8.08;100.00
20909;BME280;10614;53.198;6.570;2023-02-03T06:39:15;101932.44;;;8.07;100.00
20909;BME280;10614;53.198;6.570;2023-02-03T06:41:17;101939.44;;;8.08;100.00
20909;BME280;10614;53.198;6.570;2023-02-03T06:43:18;101944.66;;;8.10;100.00
20909;BME280;10614;53.198;6.570;2023-02-03T06:45:20;101944.66;;;8.10;100.00
20909;BME280;10614;53.198;6.570;2023-02-03T06:47:23;101951.59;;;8.14;100.00
20909;BME280;10614;53.198;6.570;2023-02-03T06:49:24;101931.53;;;8.11;100.00
20909;BME280;10614;53.198;6.570;2023-02-03T06:51:26;101953.38;;;8.13;100.00
20909;BME280;10614;53.198;6.570;2023-02-03T06:53:29;101954.22;;;8.14;100.00
20909;BME280;10614;53.198;6.570;2023-02-03T06:55:30;101959.47;;;8.14;100.00
20909;BME280;10614;53.198;6.570;2023-02-03T06:57:32;101985.75;;;8.11;100.00
20909;BME280;10614;53.198;6.570;2023-02-03T06:59:34;101956.84;;;8.14;100.00
20909;BME280;10614;53.198;6.570;2023-02-03T07:01:35;101966.44;;;8.16;100.00
20909;BME280;10614;53.198;6.570;2023-02-03T07:03:37;101965.59;;;8.14;100.00
20909;BME280;10614;53.198;6.570;2023-02-03T07:05:39;101978.69;;;8.14;100.00
20909;BME280;10614;53.198;6.570;2023-02-03T07:07:41;101971.72;;;8.15;100.00
20909;BME280;10614;53.198;6.570;2023-02-03T07:09:44;102001.38;;;8.20;100.00
20909;BME280;10614;53.198;6.570;2023-02-03T07:11:45;101969.91;;;8.18;100.00
20909;BME280;10614;53.198;6.570;2023-02-03T07:13:47;101976.03;;;8.19;100.00
20909;BME280;10614;53.198;6.570;2023-02-03T07:15:49;101971.69;;;8.18;100.00
20909;BME280;10614;53.198;6.570;2023-02-03T07:17:50;101982.97;;;8.21;100.00
20909;BME280;10614;53.198;6.570;2023-02-03T07:19:53;101983.03;;;8.20;100.00
20909;BME280;10614;53.198;6.570;2023-02-03T07:21:55;101980.34;;;8.21;100.00
20909;BME280;10614;53.198;6.570;2023-02-03T07:23:57;102000.47;;;8.21;100.00
20909;BME280;10614;53.198;6.570;2023-02-03T07:26:01;101985.56;;;8.26;100.00
20909;BME280;10614;53.198;6.570;2023-02-03T07:28:04;102008.28;;;8.25;100.00
20909;BME280;10614;53.198;6.570;2023-02-03T07:30:07;102012.69;;;8.25;100.00
20909;BME280;10614;53.198;6.570;2023-02-03T07:32:09;102019.66;;;8.26;100.00
20909;BME280;10614;53.198;6.570;2023-02-03T07:34:11;101999.56;;;8.25;100.00
20909;BME280;10614;53.198;6.570;2023-02-03T07:36:12;102004.88;;;8.19;100.00
20909;BME280;10614;53.198;6.570;2023-02-03T07:38:14;101996.19;;;8.14;100.00
20909;BME280;10614;53.198;6.570;2023-02-03T07:40:16;102007.59;;;8.10;100.00
20909;BME280;10614;53.198;6.570;2023-02-03T07:42:19;102005.91;;;8.04;100.00
20909;BME280;10614;53.198;6.570;2023-02-03T07:44:21;102003.34;;;7.99;100.00
20909;BME280;10614;53.198;6.570;2023-02-03T07:46:22;102001.63;;;7.97;100.00
20909;BME280;10614;53.198;6.570;2023-02-03T07:48:24;102043.59;;;7.95;100.00
20909;BME280;10614;53.198;6.570;2023-02-03T07:50:26;102024.31;;;7.99;100.00
20909;BME280;10614;53.198;6.570;2023-02-03T07:52:28;102041.81;;;7.97;100.00
20909;BME280;10614;53.198;6.570;2023-02-03T07:54:29;102025.22;;;7.97;100.00
20909;BME280;10614;53.198;6.570;2023-02-03T07:56:31;102034.84;;;7.95;100.00
20909;BME280;10614;53.198;6.570;2023-02-03T07:58:34;102018.22;;;7.96;100.00
20909;BME280;10614;53.198;6.570;2023-02-03T08:00:36;102021.75;;;7.96;100.00
20909;BME280;10614;53.198;6.570;2023-02-03T08:02:37;102024.38;;;7.96;100.00
20909;BME280;10614;53.198;6.570;2023-02-03T08:04:39;102026.09;;;7.99;100.00
20909;BME280;10614;53.198;6.570;2023-02-03T08:06:41;102014.72;;;7.98;100.00
20909;BME280;10614;53.198;6.570;2023-02-03T08:08:43;102013.84;;;7.98;100.00
20909;BME280;10614;53.198;6.570;2023-02-03T08:10:44;102027.84;;;7.97;100.00
20909;BME280;10614;53.198;6.570;2023-02-03T08:12:46;102027.84;;;7.95;100.00
20909;BME280;10614;53.198;6.570;2023-02-03T08:14:51;102040.06;;;7.99;100.00
20909;BME280;10614;53.198;6.570;2023-02-03T08:16:52;102046.19;;;7.98;100.00
20909;BME280;10614;53.198;6.570;2023-02-03T08:18:57;102029.63;;;7.96;100.00
20909;BME280;10614;53.198;6.570;2023-02-03T08:20:58;102052.31;;;7.96;100.00
20909;BME280;10614;53.198;6.570;2023-02-03T08:23:01;102056.69;;;7.98;100.00
20909;BME280;10614;53.198;6.570;2023-02-03T08:25:03;102040.97;;;7.98;100.00
20909;BME280;10614;53.198;6.570;2023-02-03T08:27:05;102054.94;;;7.99;100.00
20909;BME280;10614;53.198;6.570;2023-02-03T08:29:07;102052.28;;;8.00;100.00
20909;BME280;10614;53.198;6.570;2023-02-03T08:31:12;102048.78;;;8.00;100.00
20909;BME280;10614;53.198;6.570;2023-02-03T08:33:13;102060.13;;;8.03;100.00
20909;BME280;10614;53.198;6.570;2023-02-03T08:35:15;102061.00;;;8.02;100.00
20909;BME280;10614;53.198;6.570;2023-02-03T08:37:21;102073.19;;;8.07;100.00
20909;BME280;10614;53.198;6.570;2023-02-03T08:39:23;102071.44;;;8.07;100.00
20909;BME280;10614;53.198;6.570;2023-02-03T08:41:26;102068.81;;;8.09;100.00
20909;BME280;10614;53.198;6.570;2023-02-03T08:43:27;102109.91;;;8.08;100.00
20909;BME280;10614;53.198;6.570;2023-02-03T08:45:29;102067.97;;;8.05;100.00
20909;BME280;10614;53.198;6.570;2023-02-03T08:47:33;102064.44;;;8.08;100.00
20909;BME280;10614;53.198;6.570;2023-02-03T08:49:36;102085.41;;;8.09;100.00
20909;BME280;10614;53.198;6.570;2023-02-03T08:51:38;102077.53;;;8.09;100.00
20909;BME280;10614;53.198;6.570;2023-02-03T08:53:40;102076.69;;;8.10;100.00
20909;BME280;10614;53.198;6.570;2023-02-03T08:55:42;102083.66;;;8.11;100.00
20909;BME280;10614;53.198;6.570;2023-02-03T08:57:43;102124.72;;;8.12;100.00
20909;BME280;10614;53.198;6.570;2023-02-03T08:59:45;102084.50;;;8.13;100.00
20909;BME280;10614;53.198;6.570;2023-02-03T09:01:47;102091.50;;;8.11;100.00
20909;BME280;10614;53.198;6.570;2023-02-03T09:03:50;102092.38;;;8.12;100.00
20909;BME280;10614;53.198;6.570;2023-02-03T09:05:52;102105.47;;;8.13;100.00
20909;BME280;10614;53.198;6.570;2023-02-03T09:07:54;102095.84;;;8.14;100.00
20909;BME280;10614;53.198;6.570;2023-02-03T09:09:55;102092.31;;;8.18;100.00
20909;BME280;10614;53.198;6.570;2023-02-03T09:11:57;102092.31;;;8.19;100.00
20909;BME280;10614;53.198;6.570;2023-02-03T09:14:01;102102.81;;;8.18;100.00
20909;BME280;10614;53.198;6.570;2023-02-03T09:16:04;102098.44;;;8.20;100.00
20909;BME280;10614;53.198;6.570;2023-02-03T09:18:05;102119.41;;;8.20;100.00
20909;BME280;10614;53.198;6.570;2023-02-03T09:20:10;102106.25;;;8.21;100.00
20909;BME280;10614;53.198;6.570;2023-02-03T09:22:14;102121.09;;;8.24;100.00
20909;BME280;10614;53.198;6.570;2023-02-03T09:24:16;102147.31;;;8.27;100.00
20909;BME280;10614;53.198;6.570;2023-02-03T09:26:18;102130.69;;;8.28;100.00
20909;BME280;10614;53.198;6.570;2023-02-03T09:28:22;102125.44;;;8.30;100.00
20909;BME280;10614;53.198;6.570;2023-02-03T09:30:23;102139.41;;;8.30;100.00
20909;BME280;10614;53.198;6.570;2023-02-03T09:32:25;102140.28;;;8.31;100.00
20909;BME280;10614;53.198;6.570;2023-02-03T09:34:26;102135.94;;;8.31;100.00
20909;BME280;10614;53.198;6.570;2023-02-03T09:36:29;102151.63;;;8.33;100.00
20909;BME280;10614;53.198;6.570;2023-02-03T09:38:32;102164.78;;;8.31;100.00
20909;BME280;10614;53.198;6.570;2023-02-03T09:40:34;102162.97;;;8.33;100.00
20909;BME280;10614;53.198;6.570;2023-02-03T09:42:56;102176.97;;;8.35;100.00
20909;BME280;10614;53.198;6.570;2023-02-03T09:45:12;102175.25;;;8.34;100.00
20909;BME280;10614;53.198;6.570;2023-02-03T09:47:18;102157.75;;;8.33;100.00
20909;BME280;10614;53.198;6.570;2023-02-03T09:49:24;102171.72;;;8.35;100.00
20909;BME280;10614;53.198;6.570;2023-02-03T09:51:31;102169.09;;;8.35;100.00
20909;BME280;10614;53.198;6.570;2023-02-03T09:53:41;102194.47;;;8.35;100.00
20909;BME280;10614;53.198;6.570;2023-02-03T09:55:46;102198.81;;;8.39;100.00
20909;BME280;10614;53.198;6.570;2023-02-03T09:57:51;102187.44;;;8.40;100.00
20909;BME280;10614;53.198;6.570;2023-02-03T09:59:58;102182.19;;;8.38;100.00
20909;BME280;10614;53.198;6.570;2023-02-03T10:02:12;102206.69;;;8.40;100.00
20909;BME280;10614;53.198;6.570;2023-02-03T10:04:24;102186.59;;;8.41;100.00
20909;BME280;10614;53.198;6.570;2023-02-03T10:06:35;102214.53;;;8.42;100.00
20909;BME280;10614;53.198;6.570;2023-02-03T10:08:50;102211.06;;;8.41;100.00
20909;BME280;10614;53.198;6.570;2023-02-03T10:11:01;102203.19;;;8.41;100.00
20909;BME280;10614;53.198;6.570;2023-02-03T10:13:18;102217.13;;;8.45;100.00
20909;BME280;10614;53.198;6.570;2023-02-03T10:15:40;102210.16;;;8.44;100.00
20909;BME280;10614;53.198;6.570;2023-02-03T10:17:49;102222.41;;;8.43;100.00
20909;BME280;10614;53.198;6.570;2023-02-03T10:19:56;102218.03;;;8.42;100.00
20909;BME280;10614;53.198;6.570;2023-02-03T10:22:03;102233.78;;;8.42;100.00
20909;BME280;10614;53.198;6.570;2023-02-03T10:24:10;102235.53;;;8.43;100.00
20909;BME280;10614;53.198;6.570;2023-02-03T10:26:17;102235.50;;;8.47;100.00
20909;BME280;10614;53.198;6.570;2023-02-03T10:28:24;102233.72;;;8.50;100.00
20909;BME280;10614;53.198;6.570;2023-02-03T10:30:31;102223.22;;;8.50;100.00
20909;BME280;10614;53.198;6.570;2023-02-03T10:32:33;102240.69;;;8.53;100.00
20909;BME280;10614;53.198;6.570;2023-02-03T10:34:37;102251.16;;;8.54;100.00
20909;BME280;10614;53.198;6.570;2023-02-03T10:36:52;102257.31;;;8.55;100.00
20909;BME280;10614;53.198;6.570;2023-02-03T10:39:00;102253.78;;;8.54;100.00
20909;BME280;10614;53.198;6.570;2023-02-03T10:41:04;102247.66;;;8.57;100.00
20909;BME280;10614;53.198;6.570;2023-02-03T10:43:08;102251.13;;;8.59;100.00
20909;BME280;10614;53.198;6.570;2023-02-03T10:45:27;102242.38;;;8.58;100.00
20909;BME280;10614;53.198;6.570;2023-02-03T10:47:32;102247.63;;;8.58;100.00
20909;BME280;10614;53.198;6.570;2023-02-03T10:49:35;102259.00;;;8.60;100.00
20909;BME280;10614;53.198;6.570;2023-02-03T10:51:40;102261.63;;;8.59;100.00
20909;BME280;10614;53.198;6.570;2023-02-03T10:53:43;102265.09;;;8.62;100.00